createdAt,value
2019-05-16T00:00:02.334Z,82.30
2019-05-16T00:02:34.626Z,82.40
2019-05-16T00:05:08.367Z,82.20
2019-05-16T00:07:39.426Z,82.40
2019-05-16T00:10:10.178Z,82.60
2019-05-16T00:12:40.807Z,82.90
2019-05-16T00:15:12.142Z,82.80
2019-05-16T00:17:42.701Z,82.30
2019-05-16T00:20:13.655Z,82.70
2019-05-16T00:22:44.285Z,83.00
2019-05-16T00:25:15.346Z,82.90
2019-05-16T00:27:47.978Z,83.50
2019-05-16T00:30:18.446Z,83.40
2019-05-16T00:32:49.042Z,83.30
2019-05-16T00:35:19.694Z,83.90
2019-05-16T00:37:50.247Z,83.60
2019-05-16T00:40:20.862Z,84.00
2019-05-16T00:42:51.350Z,84.50
2019-05-16T00:45:21.999Z,84.30
2019-05-16T00:47:52.645Z,84.20
2019-05-16T00:50:23.202Z,84.50
2019-05-16T00:52:53.863Z,84.80
2019-05-16T00:55:25.141Z,84.80
2019-05-16T00:57:58.307Z,85.10
2019-05-16T01:00:38.150Z,85.10
2019-05-16T01:03:08.893Z,85.00
2019-05-16T01:05:39.391Z,85.20
2019-05-16T01:08:09.970Z,85.20
2019-05-16T01:10:40.993Z,85.00
2019-05-16T01:13:11.650Z,84.80
2019-05-16T01:15:42.603Z,85.00
2019-05-16T01:18:13.372Z,84.50
2019-05-16T01:20:44.917Z,84.90
2019-05-16T01:23:17.983Z,84.50
2019-05-16T01:25:48.331Z,84.40
2019-05-16T01:28:19.450Z,84.30
2019-05-16T01:30:50.016Z,84.30
2019-05-16T01:33:20.521Z,84.50
2019-05-16T01:35:52.265Z,84.60
2019-05-16T01:38:23.959Z,85.60
2019-05-16T01:40:54.634Z,84.80
2019-05-16T01:43:25.284Z,85.10
2019-05-16T01:45:57.677Z,84.80
2019-05-16T01:48:29.278Z,84.60
2019-05-16T01:50:59.931Z,84.60
2019-05-16T01:53:30.814Z,84.70
2019-05-16T01:56:01.390Z,84.60
2019-05-16T01:58:31.958Z,84.60
2019-05-16T02:01:12.189Z,84.70
2019-05-16T02:03:35.062Z,84.60
2019-05-16T02:06:05.779Z,84.60
2019-05-16T02:08:38.040Z,84.70
2019-05-16T02:11:08.942Z,85.00
2019-05-16T02:13:39.750Z,85.00
2019-05-16T02:16:10.742Z,85.30
2019-05-16T02:18:41.450Z,86.00
2019-05-16T02:21:12.149Z,85.90
2019-05-16T02:23:42.697Z,86.30
2019-05-16T02:26:13.277Z,85.70
2019-05-16T02:28:44.067Z,85.60
2019-05-16T02:31:15.531Z,85.70
2019-05-16T02:33:46.410Z,86.00
2019-05-16T02:36:17.342Z,86.00
2019-05-16T02:38:51.553Z,86.40
2019-05-16T02:41:21.563Z,86.30
2019-05-16T02:43:52.778Z,86.20
2019-05-16T02:46:23.433Z,86.40
2019-05-16T02:48:54.013Z,86.40
2019-05-16T02:51:24.503Z,86.80
2019-05-16T02:53:55.155Z,86.50
2019-05-16T02:56:25.829Z,86.90
2019-05-16T02:58:56.447Z,86.80
2019-05-16T03:01:27.076Z,86.80
2019-05-16T03:04:01.457Z,86.80
2019-05-16T03:06:32.255Z,86.90
2019-05-16T03:09:06.211Z,87.10
2019-05-16T03:11:36.951Z,87.50
2019-05-16T03:14:07.595Z,87.80
2019-05-16T03:16:41.847Z,87.90
2019-05-16T03:19:14.845Z,87.80
2019-05-16T03:21:45.394Z,87.90
2019-05-16T03:24:16.360Z,88.00
2019-05-16T03:26:46.856Z,88.20
2019-05-16T03:29:17.365Z,88.20
2019-05-16T03:31:53.553Z,88.40
2019-05-16T03:34:25.588Z,88.50
2019-05-16T03:36:54.290Z,88.70
2019-05-16T03:39:25.003Z,89.50
2019-05-16T03:41:55.810Z,88.80
2019-05-16T03:44:26.319Z,88.80
2019-05-16T03:46:56.806Z,89.20
2019-05-16T03:49:30.936Z,89.20
2019-05-16T03:52:01.698Z,89.50
2019-05-16T03:54:32.501Z,89.70
2019-05-16T03:57:03.508Z,89.90
2019-05-16T03:59:34.007Z,89.70
2019-05-16T04:02:04.767Z,89.70
2019-05-16T04:04:35.240Z,90.00
2019-05-16T04:07:05.834Z,90.10
2019-05-16T04:09:36.749Z,90.30
2019-05-16T04:12:10.580Z,90.30
2019-05-16T04:14:41.024Z,90.20
2019-05-16T04:17:11.834Z,90.10
2019-05-16T04:19:42.463Z,90.20
2019-05-16T04:22:15.957Z,90.10
2019-05-16T04:24:46.796Z,90.20
2019-05-16T04:27:17.394Z,90.20
2019-05-16T04:29:51.043Z,90.20
2019-05-16T04:32:21.059Z,90.30
2019-05-16T04:34:51.842Z,90.40
2019-05-16T04:37:26.085Z,90.40
2019-05-16T04:39:54.871Z,90.40
2019-05-16T04:42:25.386Z,90.30
2019-05-16T04:44:55.988Z,90.20
2019-05-16T04:47:26.675Z,90.10
2019-05-16T04:50:00.985Z,90.10
2019-05-16T04:52:30.662Z,90.20
2019-05-16T04:55:01.503Z,90.20
2019-05-16T04:57:32.278Z,90.20
2019-05-16T05:00:03.271Z,90.20
2019-05-16T05:02:35.027Z,90.00
2019-05-16T05:05:06.478Z,90.00
2019-05-16T05:07:37.098Z,90.00
2019-05-16T05:10:10.952Z,90.00
2019-05-16T05:12:41.032Z,89.70
2019-05-16T05:15:12.500Z,89.40
2019-05-16T05:17:43.199Z,88.80
2019-05-16T05:20:14.250Z,88.60
2019-05-16T05:22:44.922Z,88.70
2019-05-16T05:25:15.701Z,88.50
2019-05-16T05:27:46.286Z,88.40
2019-05-16T05:30:19.615Z,88.60
2019-05-16T05:32:50.198Z,87.80
2019-05-16T05:35:21.088Z,87.50
2019-05-16T05:37:51.757Z,87.90
2019-05-16T05:40:22.465Z,88.10
2019-05-16T05:42:53.077Z,87.90
2019-05-16T05:45:23.734Z,87.00
2019-05-16T05:47:54.299Z,87.10
2019-05-16T05:50:25.065Z,86.80
2019-05-16T05:52:55.630Z,86.30
2019-05-16T05:55:26.676Z,85.70
2019-05-16T05:57:57.161Z,85.10
2019-05-16T06:00:30.321Z,84.70
2019-05-16T06:03:01.046Z,83.90
2019-05-16T06:05:31.627Z,83.70
2019-05-16T06:08:02.318Z,84.20
2019-05-16T06:10:33.005Z,84.20
2019-05-16T06:13:03.935Z,84.40
2019-05-16T06:15:34.874Z,83.60
2019-05-16T06:18:05.573Z,83.80
2019-05-16T06:20:36.201Z,83.60
2019-05-16T06:23:07.088Z,85.10
2019-05-16T06:25:40.417Z,84.00
2019-05-16T06:28:10.624Z,84.10
2019-05-16T06:30:41.387Z,83.40
2019-05-16T06:33:12.040Z,83.60
2019-05-16T06:35:42.635Z,82.70
2019-05-16T06:38:13.209Z,82.70
2019-05-16T06:40:43.774Z,82.00
2019-05-16T06:43:14.682Z,82.10
2019-05-16T06:45:45.356Z,81.30
2019-05-16T06:48:16.068Z,82.60
2019-05-16T06:50:46.762Z,81.70
2019-05-16T06:53:17.446Z,81.80
2019-05-16T06:55:49.813Z,81.30
2019-05-16T06:58:22.316Z,81.60
2019-05-16T07:00:53.042Z,81.80
2019-05-16T07:03:23.631Z,81.70
2019-05-16T07:05:54.245Z,81.20
2019-05-16T07:08:24.806Z,81.90
2019-05-16T07:10:55.497Z,80.90
2019-05-16T07:13:26.300Z,79.70
2019-05-16T07:15:57.525Z,78.70
2019-05-16T07:18:30.744Z,78.30
2019-05-16T07:21:00.872Z,78.80
2019-05-16T07:23:31.498Z,78.70
2019-05-16T07:26:02.049Z,78.90
2019-05-16T07:28:33.181Z,79.00
2019-05-16T07:31:15.001Z,78.90
2019-05-16T07:33:36.295Z,78.30
2019-05-16T07:36:07.049Z,78.30
2019-05-16T07:38:40.051Z,78.20
2019-05-16T07:41:14.005Z,78.00
2019-05-16T07:43:43.206Z,78.50
2019-05-16T07:46:13.794Z,79.40
2019-05-16T07:48:44.284Z,79.70
2019-05-16T07:51:14.798Z,79.50
2019-05-16T07:53:45.467Z,78.90
2019-05-16T07:56:16.055Z,79.30
2019-05-16T07:58:46.608Z,78.50
2019-05-16T08:01:17.307Z,78.60
2019-05-16T08:03:50.673Z,79.50
2019-05-16T08:06:20.650Z,78.10
2019-05-16T08:08:51.569Z,77.40
2019-05-16T08:11:23.671Z,77.00
2019-05-16T08:13:54.526Z,78.00
2019-05-16T08:16:25.053Z,77.20
2019-05-16T08:18:55.826Z,77.00
2019-05-16T08:21:27.733Z,77.10
2019-05-16T08:24:05.651Z,78.00
2019-05-16T08:26:32.954Z,78.00
2019-05-16T08:29:03.833Z,76.60
2019-05-16T08:31:54.964Z,75.20
2019-05-16T08:34:25.577Z,75.60
2019-05-16T08:36:56.161Z,75.30
2019-05-16T08:39:26.733Z,76.70
2019-05-16T08:42:05.341Z,74.40
2019-05-16T08:44:32.392Z,74.10
2019-05-16T08:47:06.174Z,72.30
2019-05-16T08:49:34.384Z,72.40
2019-05-16T08:52:05.038Z,72.70
2019-05-16T08:54:35.711Z,72.60
2019-05-16T08:57:25.541Z,72.20
2019-05-16T08:59:41.042Z,73.60
2019-05-16T09:02:12.515Z,72.30
2019-05-16T09:04:44.636Z,72.00
2019-05-16T09:07:15.294Z,72.50
2019-05-16T09:09:51.228Z,73.30
2019-05-16T09:12:18.215Z,73.40
2019-05-16T09:14:49.154Z,72.80
2019-05-16T09:17:19.694Z,72.80
2019-05-16T09:19:50.430Z,73.00
2019-05-16T09:22:21.073Z,72.80
2019-05-16T09:24:51.657Z,72.40
2019-05-16T09:27:22.637Z,73.80
2019-05-16T09:29:53.403Z,75.50
2019-05-16T09:32:23.975Z,75.20
2019-05-16T09:34:57.123Z,73.90
2019-05-16T09:37:26.956Z,72.30
2019-05-16T09:39:57.614Z,73.20
2019-05-16T09:42:29.331Z,72.10
2019-05-16T09:44:59.924Z,71.90
2019-05-16T09:47:30.879Z,72.30
2019-05-16T09:50:01.548Z,72.30
2019-05-16T09:52:32.257Z,71.90
2019-05-16T09:55:17.814Z,73.40
2019-05-16T09:57:48.774Z,73.10
2019-05-16T10:00:21.914Z,74.40
2019-05-16T10:02:52.662Z,73.10
2019-05-16T10:05:23.526Z,72.10
2019-05-16T10:07:54.100Z,70.50
2019-05-16T10:10:26.254Z,69.80
2019-05-16T10:12:57.057Z,70.10
2019-05-16T10:15:27.707Z,69.80
2019-05-16T10:17:58.279Z,68.60
2019-05-16T10:20:29.186Z,68.80
2019-05-16T10:22:59.753Z,69.40
2019-05-16T10:25:30.346Z,68.40
2019-05-16T10:28:01.182Z,69.70
2019-05-16T10:30:32.029Z,70.60
2019-05-16T10:33:02.678Z,69.70
2019-05-16T10:35:33.331Z,69.30
2019-05-16T10:38:04.336Z,68.40
2019-05-16T10:40:36.899Z,68.60
2019-05-16T10:43:07.586Z,67.80
2019-05-16T10:45:38.251Z,66.80
2019-05-16T10:48:08.834Z,66.90
2019-05-16T10:50:39.478Z,67.30
2019-05-16T10:53:32.377Z,67.60
2019-05-16T10:55:42.491Z,68.20
2019-05-16T10:58:13.326Z,67.00
2019-05-16T11:01:18.974Z,66.60
2019-05-16T11:03:36.591Z,67.10
2019-05-16T11:06:13.169Z,66.70
2019-05-16T11:08:39.764Z,67.80
2019-05-16T11:11:11.430Z,67.80
2019-05-16T11:13:42.027Z,66.80
2019-05-16T11:16:13.026Z,68.90
2019-05-16T11:18:43.665Z,68.00
2019-05-16T11:21:18.926Z,69.00
2019-05-16T11:23:47.100Z,67.50
2019-05-16T11:26:17.723Z,67.60
2019-05-16T11:28:49.179Z,67.50
2019-05-16T11:31:20.087Z,67.90
2019-05-16T11:33:51.047Z,67.40
2019-05-16T11:36:21.566Z,68.10
2019-05-16T11:38:52.070Z,66.60
2019-05-16T11:41:22.737Z,66.00
2019-05-16T11:43:53.386Z,66.50
2019-05-16T11:46:24.317Z,64.50
2019-05-16T11:48:56.907Z,64.70
2019-05-16T11:51:27.611Z,64.90
2019-05-16T11:53:59.951Z,65.00
2019-05-16T11:56:30.970Z,64.10
2019-05-16T11:59:02.568Z,67.00
2019-05-16T12:01:33.170Z,66.00
2019-05-16T12:04:03.757Z,66.80
2019-05-16T12:06:34.297Z,66.00
2019-05-16T12:09:07.706Z,65.50
2019-05-16T12:11:38.449Z,64.30
2019-05-16T12:14:09.250Z,65.30
2019-05-16T12:16:40.223Z,66.80
2019-05-16T12:19:10.790Z,64.40
2019-05-16T12:21:43.414Z,65.10
2019-05-16T12:24:29.047Z,63.10
2019-05-16T12:26:48.010Z,63.50
2019-05-16T12:29:18.878Z,63.00
2019-05-16T12:31:57.750Z,62.80
2019-05-16T12:34:21.846Z,63.50
2019-05-16T12:36:52.515Z,64.50
2019-05-16T12:39:23.243Z,64.10
2019-05-16T12:41:53.811Z,64.00
2019-05-16T12:44:26.747Z,65.00
2019-05-16T12:46:57.047Z,65.20
2019-05-16T12:49:27.763Z,66.70
2019-05-16T12:51:58.327Z,66.10
2019-05-16T12:54:29.034Z,66.30
2019-05-16T12:56:59.667Z,64.80
2019-05-16T12:59:30.468Z,65.40
2019-05-16T13:02:01.076Z,66.10
2019-05-16T13:04:31.866Z,66.00
2019-05-16T13:07:02.374Z,64.50
2019-05-16T13:09:32.954Z,64.50
2019-05-16T13:12:06.714Z,66.10
2019-05-16T13:14:40.101Z,65.60
2019-05-16T13:17:08.403Z,65.40
2019-05-16T13:19:44.261Z,66.70
2019-05-16T13:22:11.857Z,67.30
2019-05-16T13:24:42.498Z,68.30
2019-05-16T13:27:13.085Z,69.30
2019-05-16T13:29:43.858Z,69.70
2019-05-16T13:32:14.451Z,69.90
2019-05-16T13:34:45.432Z,69.60
2019-05-16T13:37:17.990Z,69.70
2019-05-16T13:39:48.842Z,70.80
2019-05-16T13:42:19.611Z,70.80
2019-05-16T13:44:50.182Z,70.60
2019-05-16T13:47:20.846Z,71.80
2019-05-16T13:49:51.481Z,72.20
2019-05-16T13:52:22.459Z,71.70
2019-05-16T13:54:53.047Z,72.50
2019-05-16T13:57:23.913Z,71.50
2019-05-16T13:59:56.739Z,72.50
2019-05-16T14:02:27.042Z,72.40
2019-05-16T14:04:57.805Z,72.10
2019-05-16T14:07:28.302Z,71.70
2019-05-16T14:09:58.810Z,71.80
2019-05-16T14:12:29.446Z,72.70
2019-05-16T14:15:00.031Z,71.70
2019-05-16T14:17:30.707Z,72.40
2019-05-16T14:20:01.340Z,72.50
2019-05-16T14:22:33.494Z,72.40
2019-05-16T14:25:07.082Z,73.10
2019-05-16T14:27:38.523Z,73.10
2019-05-16T14:30:10.161Z,72.90
2019-05-16T14:32:43.594Z,74.00
2019-05-16T14:35:14.050Z,73.10
2019-05-16T14:37:46.871Z,73.40
2019-05-16T14:40:18.090Z,72.90
2019-05-16T14:42:48.811Z,72.30
2019-05-16T14:45:20.022Z,72.40
2019-05-16T14:47:50.930Z,72.70
2019-05-16T14:50:21.563Z,73.50
2019-05-16T14:52:52.394Z,72.40
2019-05-16T14:55:23.334Z,72.30
2019-05-16T14:57:53.925Z,72.20
2019-05-16T15:00:27.410Z,71.70
2019-05-16T15:02:57.288Z,72.10
2019-05-16T15:05:42.830Z,71.80
2019-05-16T15:08:12.984Z,71.50
2019-05-16T15:10:43.694Z,71.90
2019-05-16T15:13:17.473Z,71.70
2019-05-16T15:15:47.963Z,70.80
2019-05-16T15:18:18.561Z,71.60
2019-05-16T15:20:49.142Z,71.80
2019-05-16T15:23:20.073Z,71.90
2019-05-16T15:25:50.665Z,71.90
2019-05-16T15:28:21.513Z,72.60
2019-05-16T15:30:52.266Z,72.40
2019-05-16T15:33:22.838Z,72.60
2019-05-16T15:35:53.498Z,72.20
2019-05-16T15:38:24.111Z,72.20
2019-05-16T15:41:00.055Z,72.60
2019-05-16T15:43:27.475Z,73.20
2019-05-16T15:46:01.155Z,74.20
2019-05-16T15:48:31.194Z,74.50
2019-05-16T15:51:02.291Z,74.70
2019-05-16T15:53:33.042Z,75.00
2019-05-16T15:56:03.838Z,75.50
2019-05-16T15:58:37.159Z,76.40
2019-05-16T16:01:07.289Z,75.80
2019-05-16T16:03:38.372Z,76.50
2019-05-16T16:06:09.166Z,76.50
2019-05-16T16:08:39.792Z,76.50
2019-05-16T16:11:10.639Z,76.40
2019-05-16T16:13:41.314Z,76.50
2019-05-16T16:16:12.001Z,76.20
2019-05-16T16:18:42.753Z,76.20
2019-05-16T16:21:13.587Z,76.70
2019-05-16T16:23:47.117Z,76.70
2019-05-16T16:26:17.724Z,76.40
2019-05-16T16:28:49.146Z,76.60
2019-05-16T16:31:20.085Z,76.90
2019-05-16T16:33:50.694Z,77.10
2019-05-16T16:36:21.273Z,76.90
2019-05-16T16:38:51.964Z,76.70
2019-05-16T16:41:22.838Z,77.00
2019-05-16T16:43:53.425Z,77.00
2019-05-16T16:46:26.906Z,77.30
2019-05-16T16:48:56.917Z,77.60
2019-05-16T16:51:27.747Z,77.90
2019-05-16T16:53:58.475Z,78.10
2019-05-16T16:56:29.253Z,78.30
2019-05-16T16:59:00.044Z,78.60
2019-05-16T17:01:30.546Z,78.40
2019-05-16T17:04:01.251Z,78.40
2019-05-16T17:06:32.235Z,78.60
2019-05-16T17:09:07.527Z,78.60
2019-05-16T17:11:37.891Z,78.40
2019-05-16T17:14:08.602Z,78.40
2019-05-16T17:16:39.281Z,78.30
2019-05-16T17:19:09.971Z,78.40
2019-05-16T17:21:40.694Z,78.40
2019-05-16T17:24:11.378Z,78.60
2019-05-16T17:26:42.452Z,78.60
2019-05-16T17:29:13.165Z,78.40
2019-05-16T17:31:44.104Z,78.80
2019-05-16T17:34:16.296Z,78.70
2019-05-16T17:36:47.098Z,79.10
2019-05-16T17:39:18.355Z,79.30
2019-05-16T17:41:54.619Z,79.90
2019-05-16T17:44:21.754Z,79.30
2019-05-16T17:46:53.051Z,79.20
2019-05-16T17:49:23.679Z,79.40
2019-05-16T17:51:54.532Z,79.50
2019-05-16T17:54:26.746Z,79.50
2019-05-16T17:56:57.882Z,79.90
2019-05-16T17:59:28.571Z,80.30
2019-05-16T18:01:59.178Z,80.00
2019-05-16T18:04:30.224Z,79.60
2019-05-16T18:07:01.007Z,79.80
2019-05-16T18:09:31.770Z,79.80
2019-05-16T18:12:02.715Z,79.90
2019-05-16T18:14:33.291Z,81.50
2019-05-16T18:17:03.958Z,79.80
2019-05-16T18:19:34.566Z,80.30
2019-05-16T18:22:06.703Z,80.40
2019-05-16T18:24:38.441Z,80.70
2019-05-16T18:27:09.043Z,81.00
2019-05-16T18:29:39.686Z,81.10
2019-05-16T18:32:10.438Z,81.00
2019-05-16T18:34:41.037Z,81.00
2019-05-16T18:37:11.686Z,81.20
2019-05-16T18:39:42.440Z,81.30
2019-05-16T18:42:13.011Z,81.50
2019-05-16T18:44:43.538Z,81.80
2019-05-16T18:47:14.186Z,82.00
2019-05-16T18:49:47.157Z,81.90
2019-05-16T18:52:17.737Z,82.20
2019-05-16T18:54:48.335Z,82.50
2019-05-16T18:57:19.034Z,82.70
2019-05-16T18:59:49.814Z,82.60
2019-05-16T19:02:20.842Z,83.10
2019-05-16T19:04:51.452Z,83.40
2019-05-16T19:07:23.143Z,83.20
2019-05-16T19:09:54.071Z,83.60
2019-05-16T19:12:26.284Z,83.40
2019-05-16T19:14:57.125Z,84.10
2019-05-16T19:17:29.341Z,83.90
2019-05-16T19:19:59.939Z,83.90
2019-05-16T19:22:30.590Z,83.90
2019-05-16T19:25:01.258Z,84.10
2019-05-16T19:27:32.913Z,84.00
2019-05-16T19:30:07.873Z,84.40
2019-05-16T19:32:39.544Z,85.20
2019-05-16T19:35:11.023Z,84.50
2019-05-16T19:37:42.001Z,85.00
2019-05-16T19:40:17.013Z,85.30
2019-05-16T19:42:47.249Z,85.70
2019-05-16T19:45:18.365Z,86.00
2019-05-16T19:47:49.443Z,86.40
2019-05-16T19:50:20.825Z,86.40
2019-05-16T19:52:51.478Z,86.50
2019-05-16T19:55:22.234Z,86.70
2019-05-16T19:57:53.842Z,86.90
2019-05-16T20:00:26.571Z,87.20
2019-05-16T20:02:57.438Z,87.10
2019-05-16T20:05:28.230Z,87.30
2019-05-16T20:07:59.046Z,87.60
2019-05-16T20:10:30.625Z,87.70
2019-05-16T20:13:01.476Z,87.90
2019-05-16T20:15:32.456Z,89.00
2019-05-16T20:18:03.207Z,87.90
2019-05-16T20:20:37.119Z,87.80
2019-05-16T20:23:08.146Z,87.70
2019-05-16T20:25:38.723Z,87.90
2019-05-16T20:28:09.385Z,87.80
2019-05-16T20:30:40.957Z,88.00
2019-05-16T20:33:11.559Z,87.90
2019-05-16T20:35:42.665Z,87.80
2019-05-16T20:38:13.342Z,87.30
2019-05-16T20:40:46.463Z,87.10
2019-05-16T20:43:16.984Z,87.00
2019-05-16T20:45:47.850Z,87.30
2019-05-16T20:48:18.845Z,87.60
2019-05-16T20:50:49.561Z,87.70
2019-05-16T20:53:20.083Z,87.30
2019-05-16T20:55:50.795Z,87.40
2019-05-16T20:58:21.484Z,87.30
2019-05-16T21:00:52.729Z,87.40
2019-05-16T21:03:23.915Z,87.10
2019-05-16T21:05:58.216Z,87.10
2019-05-16T21:08:27.746Z,87.20
2019-05-16T21:10:58.895Z,87.50
2019-05-16T21:13:29.736Z,87.30
2019-05-16T21:16:00.583Z,87.10
2019-05-16T21:18:31.186Z,87.30
2019-05-16T21:21:01.706Z,87.60
2019-05-16T21:23:32.490Z,87.60
2019-05-16T21:26:03.207Z,87.70
2019-05-16T21:28:36.770Z,87.60
2019-05-16T21:31:07.411Z,87.70
2019-05-16T21:33:38.265Z,88.40
2019-05-16T21:36:09.111Z,87.80
2019-05-16T21:38:39.826Z,87.80
2019-05-16T21:41:10.799Z,87.90
2019-05-16T21:43:41.580Z,88.00
2019-05-16T21:46:12.840Z,88.20
2019-05-16T21:48:43.823Z,88.70
2019-05-16T21:51:19.402Z,89.00
2019-05-16T21:53:47.275Z,88.70
2019-05-16T21:56:18.390Z,88.70
2019-05-16T21:58:49.161Z,89.20
2019-05-16T22:01:22.459Z,89.30
2019-05-16T22:03:53.373Z,89.50
2019-05-16T22:06:24.130Z,89.50
2019-05-16T22:08:57.221Z,89.30
2019-05-16T22:11:27.484Z,89.40
2019-05-16T22:13:59.621Z,89.30
2019-05-16T22:16:30.575Z,89.30
2019-05-16T22:19:01.272Z,89.30
2019-05-16T22:21:32.029Z,89.70
2019-05-16T22:24:03.067Z,89.70
2019-05-16T22:26:33.698Z,89.90
2019-05-16T22:29:06.723Z,90.10
2019-05-16T22:31:37.118Z,90.20
2019-05-16T22:34:07.701Z,90.20
2019-05-16T22:36:38.667Z,90.20
2019-05-16T22:39:09.517Z,90.00
2019-05-16T22:41:40.298Z,90.00
2019-05-16T22:44:11.063Z,90.00
2019-05-16T22:46:42.019Z,89.90
2019-05-16T22:49:12.702Z,90.10
2019-05-16T22:51:43.270Z,90.30
2019-05-16T22:54:13.853Z,90.30
2019-05-16T22:56:46.512Z,90.50
2019-05-16T22:59:17.018Z,90.50
2019-05-16T23:01:47.699Z,90.50
2019-05-16T23:04:18.270Z,90.60
2019-05-16T23:06:48.867Z,90.70
2019-05-16T23:09:19.874Z,90.70
2019-05-16T23:11:50.474Z,90.70
2019-05-16T23:14:21.442Z,90.60
2019-05-16T23:16:51.965Z,90.80
2019-05-16T23:19:22.646Z,90.60
2019-05-16T23:21:53.233Z,90.40
2019-05-16T23:24:26.183Z,90.40
2019-05-16T23:26:56.387Z,90.60
2019-05-16T23:29:27.378Z,90.40
2019-05-16T23:31:58.341Z,90.50
2019-05-16T23:34:29.030Z,90.40
2019-05-16T23:36:59.670Z,90.50
2019-05-16T23:39:30.298Z,90.80
2019-05-16T23:42:00.761Z,90.80
2019-05-16T23:44:31.426Z,90.70
2019-05-16T23:47:01.917Z,90.60
2019-05-16T23:49:32.619Z,90.90
2019-05-16T23:52:03.605Z,91.00
2019-05-16T23:54:34.126Z,90.90
2019-05-16T23:57:06.593Z,90.70
2019-05-16T23:59:37.065Z,90.70
